createdAt,value
2023-03-01T00:02:29.586Z,95526.44
2023-03-01T00:05:34.282Z,95520.63
2023-03-01T00:08:37.697Z,95520.31
2023-03-01T00:11:41.060Z,95521.41
2023-03-01T00:14:44.239Z,95520.63
2023-03-01T00:17:47.298Z,95523.28
2023-03-01T00:20:54.973Z,95512.63
2023-03-01T00:23:58.543Z,95501.19
2023-03-01T00:27:01.656Z,95489.50
2023-03-01T00:30:05.333Z,95493.50
2023-03-01T00:33:08.520Z,95491.63
2023-03-01T00:36:14.891Z,95484.97
2023-03-01T00:39:18.261Z,95469.81
2023-03-01T00:42:21.314Z,95476.50
2023-03-01T00:45:24.695Z,95469.00
2023-03-01T00:48:27.781Z,95470.75
2023-03-01T00:51:32.907Z,95481.81
2023-03-01T00:54:36.038Z,95481.03
2023-03-01T00:57:39.492Z,95467.50
2023-03-01T01:00:42.607Z,95469.38
2023-03-01T01:03:47.216Z,95468.00
2023-03-01T01:06:51.820Z,95468.31
2023-03-01T01:09:54.910Z,95473.34
2023-03-01T01:12:58.379Z,95458.03
2023-03-01T01:16:03.489Z,95470.97
2023-03-01T01:19:06.982Z,95473.34
2023-03-01T01:22:11.871Z,95469.59
2023-03-01T01:25:14.994Z,95467.03
2023-03-01T01:28:18.121Z,95463.06
2023-03-01T01:31:22.076Z,95473.91
2023-03-01T01:34:25.192Z,95472.34
2023-03-01T01:37:32.259Z,95480.03
2023-03-01T01:40:35.461Z,95484.00
2023-03-01T01:43:42.019Z,95480.81
2023-03-01T01:46:48.662Z,95481.13
2023-03-01T01:49:55.798Z,95476.09
2023-03-01T01:53:00.296Z,95433.94
2023-03-01T01:56:04.916Z,95472.63
2023-03-01T01:59:08.196Z,95472.94
2023-03-01T02:02:11.574Z,95471.84
2023-03-01T02:05:20.016Z,95463.34
2023-03-01T02:08:28.708Z,95464.16
2023-03-01T02:11:33.613Z,95457.25
2023-03-01T02:14:36.865Z,95451.13
2023-03-01T02:17:40.238Z,95453.00
2023-03-01T02:20:54.822Z,95460.69
2023-03-01T02:24:01.551Z,95461.00
2023-03-01T02:27:06.158Z,95464.44
2023-03-01T02:30:13.361Z,95458.34
2023-03-01T02:33:16.566Z,95453.78
2023-03-01T02:36:22.549Z,95464.44
2023-03-01T02:39:29.039Z,95468.97
2023-03-01T02:42:37.794Z,95468.19
2023-03-01T02:45:49.903Z,95461.25
2023-03-01T02:48:55.784Z,95462.88
2023-03-01T02:52:24.979Z,95464.72
2023-03-01T02:55:28.453Z,95462.88
2023-03-01T02:58:31.572Z,95458.34
2023-03-01T03:01:38.653Z,95465.53
2023-03-01T03:04:41.722Z,95460.19
2023-03-01T03:07:46.768Z,95452.78
2023-03-01T03:10:49.882Z,95455.44
2023-03-01T03:13:53.139Z,95461.25
2023-03-01T03:16:57.636Z,95463.41
2023-03-01T03:20:00.716Z,95459.69
2023-03-01T03:23:03.998Z,95466.38
2023-03-01T03:26:08.140Z,95463.72
2023-03-01T03:29:11.295Z,95465.09
2023-03-01T03:32:15.822Z,95465.09
2023-03-01T03:35:18.953Z,95477.59
2023-03-01T03:38:23.083Z,95469.97
2023-03-01T03:41:26.340Z,95470.13
2023-03-01T03:44:29.451Z,95481.34
2023-03-01T03:47:33.943Z,95476.81
2023-03-01T03:50:37.638Z,95479.47
2023-03-01T03:53:41.270Z,95462.03
2023-03-01T03:56:45.128Z,95482.13
2023-03-01T03:59:48.235Z,95475.22
2023-03-01T04:02:57.531Z,95432.78
2023-03-01T04:06:01.870Z,95469.47
2023-03-01T04:09:05.183Z,95483.22
2023-03-01T04:12:08.221Z,95483.22
2023-03-01T04:15:14.869Z,95479.47
2023-03-01T04:18:20.637Z,95482.13
2023-03-01T04:21:24.054Z,95461.47
2023-03-01T04:24:27.188Z,95472.78
2023-03-01T04:27:30.282Z,95485.28
2023-03-01T04:30:36.807Z,95484.28
2023-03-01T04:33:43.136Z,95493.84
2023-03-01T04:36:46.388Z,95476.13
2023-03-01T04:39:49.596Z,95485.72
2023-03-01T04:42:53.182Z,95471.53
2023-03-01T04:45:56.332Z,95479.69
2023-03-01T04:49:00.940Z,95492.03
2023-03-01T04:52:04.816Z,95480.34
2023-03-01T04:55:08.988Z,95472.16
2023-03-01T04:58:12.084Z,95478.47
2023-03-01T05:01:17.250Z,95475.94
2023-03-01T05:04:21.786Z,95467.09
2023-03-01T05:07:25.877Z,95487.50
2023-03-01T05:10:31.249Z,95482.53
2023-03-01T05:13:34.765Z,95483.50
2023-03-01T05:16:38.520Z,95488.53
2023-03-01T05:19:43.785Z,95485.47
2023-03-01T05:22:46.909Z,95479.81
2023-03-01T05:25:50.341Z,95483.25
2023-03-01T05:28:53.411Z,95476.34
2023-03-01T05:31:57.746Z,95473.69
2023-03-01T05:35:02.197Z,95474.19
2023-03-01T05:38:05.294Z,95474.97
2023-03-01T05:41:16.795Z,95488.00
2023-03-01T05:44:19.859Z,95486.00
2023-03-01T05:47:23.008Z,95484.81
2023-03-01T05:50:29.719Z,95491.63
2023-03-01T05:53:32.808Z,95498.16
2023-03-01T05:56:36.177Z,95496.16
2023-03-01T05:59:39.229Z,95510.34
2023-03-01T06:02:42.499Z,95501.66
2023-03-01T06:05:47.220Z,95505.19
2023-03-01T06:08:50.481Z,95511.09
2023-03-01T06:11:53.657Z,95520.72
2023-03-01T06:14:56.791Z,95529.00
2023-03-01T06:18:00.425Z,95522.69
2023-03-01T06:21:05.958Z,95526.22
2023-03-01T06:24:09.496Z,95531.81
2023-03-01T06:27:12.611Z,95532.41
2023-03-01T06:30:18.318Z,95518.97
2023-03-01T06:33:24.562Z,95518.47
2023-03-01T06:36:29.385Z,95514.56
2023-03-01T06:39:32.753Z,95524.63
2023-03-01T06:42:36.155Z,95522.84
2023-03-01T06:45:39.742Z,95530.03
2023-03-01T06:48:42.849Z,95525.28
2023-03-01T06:51:47.377Z,95523.91
2023-03-01T06:54:50.520Z,95522.13
2023-03-01T06:57:57.125Z,95525.03
2023-03-01T07:01:00.204Z,95481.28
2023-03-01T07:04:03.384Z,95530.91
2023-03-01T07:07:07.982Z,95527.47
2023-03-01T07:10:12.448Z,95532.78
2023-03-01T07:13:15.620Z,95526.97
2023-03-01T07:16:18.844Z,95512.16
2023-03-01T07:19:22.685Z,95515.25
2023-03-01T07:22:27.214Z,95517.34
2023-03-01T07:25:30.386Z,95523.34
2023-03-01T07:28:36.933Z,95517.66
2023-03-01T07:31:40.081Z,95520.25
2023-03-01T07:34:43.195Z,95513.84
2023-03-01T07:37:47.732Z,95505.88
2023-03-01T07:40:50.844Z,95516.72
2023-03-01T07:43:54.156Z,95518.28
2023-03-01T07:46:59.172Z,95506.84
2023-03-01T07:50:03.595Z,95510.03
2023-03-01T07:53:08.146Z,95501.47
2023-03-01T07:56:13.181Z,95499.47
2023-03-01T07:59:16.277Z,95486.81
2023-03-01T08:02:19.933Z,95493.19
2023-03-01T08:05:23.279Z,95489.03
2023-03-01T08:08:28.030Z,95490.03
2023-03-01T08:11:31.279Z,95494.84
2023-03-01T08:14:34.837Z,95497.31
2023-03-01T08:17:37.988Z,95473.19
2023-03-01T08:20:41.468Z,95486.16
2023-03-01T08:23:46.408Z,95489.59
2023-03-01T08:26:50.103Z,95485.66
2023-03-01T08:29:53.268Z,95479.84
2023-03-01T08:32:56.815Z,95494.44
2023-03-01T08:36:08.011Z,95477.44
2023-03-01T08:39:14.217Z,95481.19
2023-03-01T08:42:17.360Z,95483.31
2023-03-01T08:45:20.507Z,95490.00
2023-03-01T08:48:23.632Z,95487.63
2023-03-01T08:51:28.452Z,95483.38
2023-03-01T09:00:38.659Z,95492.66
2023-03-01T09:03:41.777Z,95488.13
2023-03-01T09:06:45.097Z,95490.78
2023-03-01T09:09:49.763Z,95488.91
2023-03-01T09:12:53.757Z,95487.06
2023-03-01T09:15:56.806Z,95480.50
2023-03-01T09:18:59.865Z,95482.19
2023-03-01T09:22:02.991Z,95494.03
2023-03-01T09:25:08.716Z,95487.91
2023-03-01T09:28:24.178Z,95470.75
2023-03-01T09:31:32.082Z,95479.66
2023-03-01T09:34:55.200Z,95481.59
2023-03-01T09:37:58.326Z,95479.16
2023-03-01T09:41:03.218Z,95471.16
2023-03-01T09:44:16.002Z,95478.94
2023-03-01T09:47:22.114Z,95475.50
2023-03-01T09:50:28.539Z,95467.22
2023-03-01T09:53:36.252Z,95464.84
2023-03-01T09:56:46.601Z,95468.28
2023-03-01T09:59:59.945Z,95463.75
2023-03-01T10:03:11.886Z,95446.06
2023-03-01T10:06:33.938Z,95438.66
2023-03-01T10:09:41.122Z,95456.06
2023-03-01T10:12:47.427Z,95456.06
2023-03-01T10:15:56.295Z,95453.47
2023-03-01T10:19:03.876Z,95458.72
2023-03-01T10:22:15.815Z,95451.25
2023-03-01T10:25:33.808Z,95429.19
2023-03-01T10:28:51.376Z,95424.44
2023-03-01T10:31:56.090Z,95419.91
2023-03-01T10:34:59.697Z,95422.28
2023-03-01T10:38:07.293Z,95418.09
2023-03-01T10:41:10.646Z,95421.50
2023-03-01T10:44:43.409Z,95418.53
2023-03-01T10:47:46.510Z,95411.66
2023-03-01T10:50:51.842Z,95411.66
2023-03-01T10:53:55.001Z,95393.06
2023-03-01T10:57:00.004Z,95404.16
2023-03-01T11:00:18.944Z,95407.91
2023-03-01T11:03:25.191Z,95402.59
2023-03-01T11:06:28.262Z,95404.66
2023-03-01T11:09:38.598Z,95403.09
2023-03-01T11:12:42.436Z,95408.69
2023-03-01T11:16:01.080Z,95409.47
2023-03-01T11:19:19.479Z,95407.63
2023-03-01T11:22:24.299Z,95392.56
2023-03-01T11:25:31.249Z,95403.09
2023-03-01T11:28:39.192Z,95407.91
2023-03-01T11:31:57.239Z,95409.47
2023-03-01T11:35:07.725Z,95400.91
2023-03-01T11:38:20.749Z,95399.06
2023-03-01T11:41:27.819Z,95398.25
2023-03-01T11:44:35.578Z,95395.09
2023-03-01T11:47:57.866Z,95386.34
2023-03-01T11:51:07.828Z,95383.66
2023-03-01T11:54:26.708Z,95378.34
2023-03-01T11:57:45.608Z,95374.91
2023-03-01T12:01:03.164Z,95375.97
2023-03-01T12:04:36.749Z,95377.56
2023-03-01T12:07:48.775Z,95379.63
2023-03-01T12:11:04.595Z,95366.63
2023-03-01T12:14:31.128Z,95369.28
2023-03-01T12:17:47.062Z,95371.16
2023-03-01T12:21:00.941Z,95366.63
2023-03-01T12:24:31.214Z,95354.13
2023-03-01T12:27:48.996Z,95358.34
2023-03-01T12:31:18.999Z,95354.13
2023-03-01T12:34:50.688Z,95348.00
2023-03-01T12:38:04.242Z,95352.53
2023-03-01T12:41:28.995Z,95349.09
2023-03-01T12:44:49.891Z,95358.94
2023-03-01T12:48:11.260Z,95340.03
2023-03-01T12:51:18.295Z,95347.22
2023-03-01T12:54:29.182Z,95334.00
2023-03-01T12:57:39.854Z,95340.31
2023-03-01T13:00:54.464Z,95332.97
2023-03-01T13:04:19.002Z,95334.56
2023-03-01T13:07:31.453Z,95342.19
2023-03-01T13:10:41.905Z,95336.09
2023-03-01T13:13:45.063Z,95344.84
2023-03-01T13:16:50.447Z,95346.72
2023-03-01T13:19:59.911Z,95345.16
2023-03-01T13:23:11.328Z,95343.06
2023-03-01T13:26:18.132Z,95340.47
2023-03-01T13:29:28.769Z,95334.56
2023-03-01T13:32:46.648Z,95342.47
2023-03-01T13:35:49.983Z,95347.81
2023-03-01T13:38:59.233Z,95340.91
2023-03-01T13:42:04.101Z,95322.72
2023-03-01T13:45:18.903Z,95340.13
2023-03-01T13:48:27.445Z,95340.13
2023-03-01T13:51:30.787Z,95329.25
2023-03-01T13:54:35.513Z,95333.72
2023-03-01T13:57:41.337Z,95322.94
2023-03-01T14:00:44.574Z,95318.19
2023-03-01T14:03:47.904Z,95317.13
2023-03-01T14:06:51.131Z,95324.50
2023-03-01T14:09:57.342Z,95332.19
2023-03-01T14:13:21.326Z,95325.00
2023-03-01T14:16:34.793Z,95326.31
2023-03-01T14:19:38.258Z,95330.06
2023-03-01T14:22:44.203Z,95311.88
2023-03-01T14:25:50.886Z,95333.78
2023-03-01T14:28:56.549Z,95341.25
2023-03-01T14:32:11.790Z,95333.28
2023-03-01T14:35:23.689Z,95324.50
2023-03-01T14:38:32.744Z,95328.25
2023-03-01T14:41:37.884Z,95329.84
2023-03-01T14:44:44.617Z,95304.50
2023-03-01T14:47:48.801Z,95330.13
2023-03-01T14:50:53.100Z,95322.94
2023-03-01T14:53:56.471Z,95321.84
2023-03-01T14:57:02.184Z,95325.88
2023-03-01T15:00:11.341Z,95330.41
2023-03-01T15:03:21.267Z,95328.53
2023-03-01T15:06:25.817Z,95321.66
2023-03-01T15:09:29.096Z,95317.41
2023-03-01T15:12:40.824Z,95316.63
2023-03-01T15:15:47.608Z,95309.72
2023-03-01T15:18:53.055Z,95312.09
2023-03-01T15:21:56.231Z,95308.63
2023-03-01T15:24:59.832Z,95311.59
2023-03-01T15:28:04.706Z,95313.97
2023-03-01T15:31:20.439Z,95302.13
2023-03-01T15:34:26.068Z,95307.16
2023-03-01T15:37:42.148Z,95318.78
2023-03-01T15:40:51.870Z,95307.34
2023-03-01T15:43:56.788Z,95311.88
2023-03-01T15:47:02.334Z,95313.75
2023-03-01T15:50:05.966Z,95307.94
2023-03-01T15:53:13.386Z,95303.72
2023-03-01T15:56:16.458Z,95310.31
2023-03-01T15:59:20.005Z,95300.75
2023-03-01T16:02:25.604Z,95295.44
2023-03-01T16:05:31.587Z,95303.41
2023-03-01T16:08:34.683Z,95292.78
2023-03-01T16:11:40.692Z,95296.50
2023-03-01T16:14:44.172Z,95300.25
2023-03-01T16:17:49.040Z,95296.03
2023-03-01T16:20:52.224Z,95295.72
2023-03-01T16:23:55.361Z,95292.97
2023-03-01T16:26:58.506Z,95303.97
2023-03-01T16:30:01.666Z,95278.31
2023-03-01T16:33:24.180Z,95292.53
2023-03-01T16:36:30.267Z,95300.72
2023-03-01T16:42:36.576Z,95298.16
2023-03-01T16:45:41.836Z,95308.19
2023-03-01T16:48:46.409Z,95295.88
2023-03-01T16:51:49.529Z,95305.31
2023-03-01T16:54:52.758Z,95307.28
2023-03-01T16:57:55.809Z,95311.63
2023-03-01T17:00:58.927Z,95305.53
2023-03-01T17:04:03.435Z,95303.34
2023-03-01T17:07:06.679Z,95299.81
2023-03-01T17:10:11.857Z,95296.34
2023-03-01T17:13:14.961Z,95294.28
2023-03-01T17:16:20.400Z,95292.13
2023-03-01T17:19:25.325Z,95302.75
2023-03-01T17:22:28.501Z,95305.72
2023-03-01T17:25:31.773Z,95302.75
2023-03-01T17:28:36.463Z,95298.81
2023-03-01T17:31:39.703Z,95310.25
2023-03-01T17:34:44.344Z,95302.56
2023-03-01T17:37:47.502Z,95308.09
2023-03-01T17:40:50.701Z,95289.47
2023-03-01T17:43:53.808Z,95310.94
2023-03-01T17:46:56.912Z,95308.66
2023-03-01T17:50:01.546Z,95316.84
2023-03-01T17:53:09.639Z,95320.59
2023-03-01T17:56:12.812Z,95315.28
2023-03-01T17:59:17.704Z,95317.56
2023-03-01T18:02:21.033Z,95320.63
2023-03-01T18:05:25.778Z,95307.22
2023-03-01T18:08:28.950Z,95315.47
2023-03-01T18:11:32.340Z,95312.81
2023-03-01T18:14:35.600Z,95318.56
2023-03-01T18:17:38.989Z,95321.13
2023-03-01T18:20:43.585Z,95319.25
2023-03-01T18:23:46.856Z,95326.47
2023-03-01T18:26:50.060Z,95332.78
2023-03-01T18:29:53.620Z,95328.16
2023-03-01T18:32:56.853Z,95335.88
2023-03-01T18:36:01.444Z,95330.25
2023-03-01T18:39:07.152Z,95316.22
2023-03-01T18:42:10.375Z,95329.34
2023-03-01T18:45:14.830Z,95325.13
2023-03-01T18:48:17.891Z,95332.31
2023-03-01T18:51:24.226Z,95341.38
2023-03-01T18:54:27.408Z,95347.78
2023-03-01T18:57:30.475Z,95329.78
2023-03-01T19:00:34.579Z,95344.50
2023-03-01T19:03:38.092Z,95345.22
2023-03-01T19:06:42.688Z,95344.91
2023-03-01T19:09:45.862Z,95352.13
2023-03-01T19:12:49.082Z,95344.44
2023-03-01T19:15:52.892Z,95340.44
2023-03-01T19:18:59.612Z,95334.81
2023-03-01T19:22:06.024Z,95343.59
2023-03-01T19:25:10.452Z,95350.31
2023-03-01T19:28:13.676Z,95338.66
2023-03-01T19:31:18.981Z,95339.56
2023-03-01T19:34:23.029Z,95331.94
2023-03-01T19:37:27.718Z,95340.72
2023-03-01T19:40:30.823Z,95338.63
2023-03-01T19:43:34.018Z,95346.91
2023-03-01T19:46:37.599Z,95353.31
2023-03-01T19:49:40.804Z,95360.50
2023-03-01T19:52:45.371Z,95365.03
2023-03-01T19:55:48.614Z,95361.59
2023-03-01T19:58:54.089Z,95360.31
2023-03-01T20:01:57.301Z,95371.94
2023-03-01T20:05:00.586Z,95363.03
2023-03-01T20:08:06.165Z,95377.28
2023-03-01T20:11:11.564Z,95378.25
2023-03-01T20:14:14.657Z,95380.91
2023-03-01T20:17:17.876Z,95385.16
2023-03-01T20:20:21.299Z,95385.16
2023-03-01T20:23:25.829Z,95383.03
2023-03-01T20:26:29.517Z,95393.66
2023-03-01T20:29:32.717Z,95384.91
2023-03-01T20:32:36.414Z,95382.50
2023-03-01T20:35:42.727Z,95384.38
2023-03-01T20:38:47.298Z,95383.59
2023-03-01T20:41:50.434Z,95382.78
2023-03-01T20:44:53.632Z,95374.91
2023-03-01T20:47:57.182Z,95383.38
2023-03-01T20:51:01.805Z,95381.00
2023-03-01T20:54:06.448Z,95366.19
2023-03-01T20:57:09.631Z,95375.19
2023-03-01T21:00:13.885Z,95375.81
2023-03-01T21:03:17.156Z,95394.91
2023-03-01T21:06:20.297Z,95391.44
2023-03-01T21:09:24.876Z,95387.72
2023-03-01T21:12:28.040Z,95383.75
2023-03-01T21:15:31.204Z,95390.66
2023-03-01T21:18:36.954Z,95391.75
2023-03-01T21:21:40.206Z,95385.59
2023-03-01T21:24:45.679Z,95379.25
2023-03-01T21:27:48.807Z,95389.09
2023-03-01T21:30:52.019Z,95388.25
2023-03-01T21:33:57.215Z,95391.75
2023-03-01T21:37:01.614Z,95398.13
2023-03-01T21:40:09.176Z,95389.63
2023-03-01T21:43:12.329Z,95387.75
2023-03-01T21:46:17.977Z,95388.06
2023-03-01T21:49:21.657Z,95379.25
2023-03-01T21:52:24.911Z,95380.94
2023-03-01T21:55:29.450Z,95374.22
2023-03-01T21:58:33.034Z,95379.84
2023-03-01T22:01:36.169Z,95380.94
2023-03-01T22:04:39.522Z,95380.13
2023-03-01T22:07:42.650Z,95377.28
2023-03-01T22:10:47.187Z,95379.13
2023-03-01T22:13:52.487Z,95383.66
2023-03-01T22:16:55.747Z,95362.81
2023-03-01T22:19:59.044Z,95378.63
2023-03-01T22:23:02.347Z,95386.13
2023-03-01T22:26:07.807Z,95380.81
2023-03-01T22:29:14.245Z,95379.72
2023-03-01T22:32:17.624Z,95380.00
2023-03-01T22:35:21.116Z,95374.69
2023-03-01T22:38:24.279Z,95378.63
2023-03-01T22:41:30.441Z,95375.19
2023-03-01T22:44:33.678Z,95372.25
2023-03-01T22:47:38.280Z,95362.69
2023-03-01T22:50:46.216Z,95364.56
2023-03-01T22:53:49.914Z,95366.13
2023-03-01T22:56:55.109Z,95369.09
2023-03-01T22:59:58.158Z,95370.66
2023-03-01T23:03:01.424Z,95373.03
2023-03-01T23:06:04.758Z,95374.13
2023-03-01T23:09:07.861Z,95365.63
2023-03-01T23:12:12.421Z,95367.22
2023-03-01T23:15:15.514Z,95359.53
2023-03-01T23:18:18.684Z,95352.63
2023-03-01T23:21:22.793Z,95355.00
2023-03-01T23:24:31.987Z,95353.41
2023-03-01T23:27:39.240Z,95351.53
2023-03-01T23:30:45.246Z,95349.19
2023-03-01T23:33:49.255Z,95352.91
2023-03-01T23:36:53.137Z,95347.88
2023-03-01T23:39:56.237Z,95355.84
2023-03-01T23:43:00.714Z,95366.47
2023-03-01T23:46:03.963Z,95363.81
2023-03-01T23:49:07.090Z,95356.91
2023-03-01T23:52:13.437Z,95352.69
2023-03-01T23:55:17.961Z,95350.81
2023-03-01T23:58:28.544Z,95349.72
